sensor_id;sensor_type;location;lat;lon;timestamp;P1;durP1;ratioP1;P2;durP2;ratioP2
36585;SDS011;22591;48.314;11.562;2022-11-09T00:01:39;9.73;;;8.82;;
36585;SDS011;22591;48.314;11.562;2022-11-09T00:04:05;9.57;;;8.63;;
36585;SDS011;22591;48.314;11.562;2022-11-09T00:06:31;9.90;;;8.13;;
36585;SDS011;22591;48.314;11.562;2022-11-09T00:08:58;9.30;;;8.40;;
36585;SDS011;22591;48.314;11.562;2022-11-09T00:11:25;12.27;;;8.10;;
36585;SDS011;22591;48.314;11.562;2022-11-09T00:13:50;15.05;;;10.73;;
36585;SDS011;22591;48.314;11.562;2022-11-09T00:16:17;12.27;;;9.77;;
36585;SDS011;22591;48.314;11.562;2022-11-09T00:18:44;11.35;;;8.80;;
36585;SDS011;22591;48.314;11.562;2022-11-09T00:21:15;14.95;;;11.20;;
36585;SDS011;22591;48.314;11.562;2022-11-09T00:23:45;12.85;;;10.65;;
36585;SDS011;22591;48.314;11.562;2022-11-09T00:26:12;17.02;;;12.43;;
36585;SDS011;22591;48.314;11.562;2022-11-09T00:28:38;15.75;;;12.85;;
36585;SDS011;22591;48.314;11.562;2022-11-09T00:31:06;18.98;;;14.45;;
36585;SDS011;22591;48.314;11.562;2022-11-09T00:33:35;11.90;;;10.63;;
36585;SDS011;22591;48.314;11.562;2022-11-09T00:36:04;17.17;;;13.30;;
36585;SDS011;22591;48.314;11.562;2022-11-09T00:38:33;14.93;;;13.30;;
36585;SDS011;22591;48.314;11.562;2022-11-09T00:41:00;12.07;;;10.88;;
36585;SDS011;22591;48.314;11.562;2022-11-09T00:43:28;14.82;;;12.75;;
36585;SDS011;22591;48.314;11.562;2022-11-09T00:45:54;14.73;;;11.52;;
36585;SDS011;22591;48.314;11.562;2022-11-09T00:48:20;13.57;;;12.18;;
36585;SDS011;22591;48.314;11.562;2022-11-09T00:50:52;17.15;;;13.70;;
36585;SDS011;22591;48.314;11.562;2022-11-09T00:53:19;12.68;;;10.70;;
36585;SDS011;22591;48.314;11.562;2022-11-09T00:56:04;14.07;;;9.98;;
36585;SDS011;22591;48.314;11.562;2022-11-09T00:58:32;10.23;;;9.30;;
36585;SDS011;22591;48.314;11.562;2022-11-09T01:01:01;18.85;;;14.23;;
36585;SDS011;22591;48.314;11.562;2022-11-09T01:03:30;17.88;;;15.82;;
36585;SDS011;22591;48.314;11.562;2022-11-09T01:05:58;15.75;;;14.10;;
36585;SDS011;22591;48.314;11.562;2022-11-09T01:08:23;14.30;;;12.90;;
36585;SDS011;22591;48.314;11.562;2022-11-09T01:10:49;16.42;;;14.73;;
36585;SDS011;22591;48.314;11.562;2022-11-09T01:13:16;16.58;;;14.30;;
36585;SDS011;22591;48.314;11.562;2022-11-09T01:15:46;13.65;;;12.25;;
36585;SDS011;22591;48.314;11.562;2022-11-09T01:18:16;17.98;;;15.75;;
36585;SDS011;22591;48.314;11.562;2022-11-09T01:20:44;17.23;;;15.13;;
36585;SDS011;22591;48.314;11.562;2022-11-09T01:23:11;22.05;;;16.27;;
36585;SDS011;22591;48.314;11.562;2022-11-09T01:25:39;19.00;;;15.52;;
36585;SDS011;22591;48.314;11.562;2022-11-09T01:28:06;20.38;;;16.65;;
36585;SDS011;22591;48.314;11.562;2022-11-09T01:30:33;20.63;;;17.08;;
36585;SDS011;22591;48.314;11.562;2022-11-09T01:33:03;20.85;;;17.85;;
36585;SDS011;22591;48.314;11.562;2022-11-09T01:35:34;24.98;;;19.63;;
36585;SDS011;22591;48.314;11.562;2022-11-09T01:38:01;15.50;;;13.85;;
36585;SDS011;22591;48.314;11.562;2022-11-09T01:40:28;21.45;;;19.15;;
36585;SDS011;22591;48.314;11.562;2022-11-09T01:42:58;12.88;;;11.68;;
36585;SDS011;22591;48.314;11.562;2022-11-09T01:45:39;16.98;;;15.27;;
36585;SDS011;22591;48.314;11.562;2022-11-09T01:48:11;12.77;;;11.48;;
36585;SDS011;22591;48.314;11.562;2022-11-09T01:50:45;10.75;;;9.77;;
36585;SDS011;22591;48.314;11.562;2022-11-09T01:53:24;14.60;;;12.70;;
36585;SDS011;22591;48.314;11.562;2022-11-09T01:55:55;13.77;;;12.37;;
36585;SDS011;22591;48.314;11.562;2022-11-09T01:58:24;12.07;;;11.07;;
36585;SDS011;22591;48.314;11.562;2022-11-09T02:00:54;11.68;;;10.65;;
36585;SDS011;22591;48.314;11.562;2022-11-09T02:03:32;13.80;;;12.40;;
36585;SDS011;22591;48.314;11.562;2022-11-09T02:06:02;10.60;;;9.60;;
36585;SDS011;22591;48.314;11.562;2022-11-09T02:08:30;14.57;;;13.05;;
36585;SDS011;22591;48.314;11.562;2022-11-09T02:10:59;12.38;;;11.18;;
36585;SDS011;22591;48.314;11.562;2022-11-09T02:13:30;11.70;;;10.55;;
36585;SDS011;22591;48.314;11.562;2022-11-09T02:15:57;12.25;;;11.07;;
36585;SDS011;22591;48.314;11.562;2022-11-09T02:18:23;17.83;;;15.95;;
36585;SDS011;22591;48.314;11.562;2022-11-09T02:20:50;16.98;;;15.18;;
36585;SDS011;22591;48.314;11.562;2022-11-09T02:23:19;13.98;;;12.35;;
36585;SDS011;22591;48.314;11.562;2022-11-09T02:26:20;15.02;;;13.52;;
36585;SDS011;22591;48.314;11.562;2022-11-09T02:28:40;11.27;;;9.80;;
36585;SDS011;22591;48.314;11.562;2022-11-09T02:31:07;12.98;;;11.75;;
36585;SDS011;22591;48.314;11.562;2022-11-09T02:33:41;15.98;;;12.60;;
36585;SDS011;22591;48.314;11.562;2022-11-09T02:36:26;14.95;;;13.27;;
36585;SDS011;22591;48.314;11.562;2022-11-09T02:38:52;10.55;;;9.63;;
36585;SDS011;22591;48.314;11.562;2022-11-09T02:41:19;14.32;;;12.73;;
36585;SDS011;22591;48.314;11.562;2022-11-09T02:43:46;10.98;;;9.95;;
36585;SDS011;22591;48.314;11.562;2022-11-09T02:46:20;17.70;;;13.25;;
36585;SDS011;22591;48.314;11.562;2022-11-09T02:48:53;10.93;;;9.82;;
36585;SDS011;22591;48.314;11.562;2022-11-09T02:51:19;10.10;;;9.27;;
36585;SDS011;22591;48.314;11.562;2022-11-09T02:53:44;12.93;;;10.77;;
36585;SDS011;22591;48.314;11.562;2022-11-09T02:56:10;11.95;;;10.18;;
36585;SDS011;22591;48.314;11.562;2022-11-09T02:58:35;13.43;;;11.70;;
36585;SDS011;22591;48.314;11.562;2022-11-09T03:01:01;13.55;;;12.30;;
36585;SDS011;22591;48.314;11.562;2022-11-09T03:03:27;12.07;;;10.88;;
36585;SDS011;22591;48.314;11.562;2022-11-09T03:05:52;12.80;;;11.15;;
36585;SDS011;22591;48.314;11.562;2022-11-09T03:08:18;13.45;;;11.40;;
36585;SDS011;22591;48.314;11.562;2022-11-09T03:10:43;11.60;;;10.50;;
36585;SDS011;22591;48.314;11.562;2022-11-09T03:13:09;10.13;;;9.13;;
36585;SDS011;22591;48.314;11.562;2022-11-09T03:15:34;9.80;;;8.90;;
36585;SDS011;22591;48.314;11.562;2022-11-09T03:18:02;8.30;;;7.57;;
36585;SDS011;22591;48.314;11.562;2022-11-09T03:20:27;9.23;;;8.35;;
36585;SDS011;22591;48.314;11.562;2022-11-09T03:22:55;9.05;;;8.25;;
36585;SDS011;22591;48.314;11.562;2022-11-09T03:25:22;7.90;;;7.25;;
36585;SDS011;22591;48.314;11.562;2022-11-09T03:27:47;7.78;;;7.18;;
36585;SDS011;22591;48.314;11.562;2022-11-09T03:30:13;7.68;;;6.80;;
36585;SDS011;22591;48.314;11.562;2022-11-09T03:32:39;7.88;;;7.28;;
36585;SDS011;22591;48.314;11.562;2022-11-09T03:35:04;9.05;;;7.80;;
36585;SDS011;22591;48.314;11.562;2022-11-09T03:37:30;7.57;;;6.97;;
36585;SDS011;22591;48.314;11.562;2022-11-09T03:39:56;8.52;;;7.82;;
36585;SDS011;22591;48.314;11.562;2022-11-09T03:42:21;8.38;;;7.57;;
36585;SDS011;22591;48.314;11.562;2022-11-09T03:44:47;8.98;;;8.23;;
36585;SDS011;22591;48.314;11.562;2022-11-09T03:47:12;9.73;;;8.70;;
36585;SDS011;22591;48.314;11.562;2022-11-09T03:49:38;9.57;;;8.73;;
36585;SDS011;22591;48.314;11.562;2022-11-09T03:52:03;10.07;;;9.13;;
36585;SDS011;22591;48.314;11.562;2022-11-09T03:54:29;9.80;;;8.75;;
36585;SDS011;22591;48.314;11.562;2022-11-09T03:56:54;10.20;;;9.20;;
36585;SDS011;22591;48.314;11.562;2022-11-09T03:59:20;9.88;;;8.98;;
36585;SDS011;22591;48.314;11.562;2022-11-09T04:01:45;10.93;;;9.93;;
36585;SDS011;22591;48.314;11.562;2022-11-09T04:04:11;11.25;;;10.18;;
36585;SDS011;22591;48.314;11.562;2022-11-09T04:06:37;10.75;;;9.57;;
36585;SDS011;22591;48.314;11.562;2022-11-09T04:09:02;8.77;;;8.10;;
36585;SDS011;22591;48.314;11.562;2022-11-09T04:11:28;8.23;;;7.68;;
36585;SDS011;22591;48.314;11.562;2022-11-09T04:13:54;8.40;;;7.80;;
36585;SDS011;22591;48.314;11.562;2022-11-09T04:16:19;8.48;;;7.88;;
36585;SDS011;22591;48.314;11.562;2022-11-09T04:18:45;9.25;;;8.52;;
36585;SDS011;22591;48.314;11.562;2022-11-09T04:21:10;8.82;;;8.13;;
36585;SDS011;22591;48.314;11.562;2022-11-09T04:23:36;8.88;;;8.07;;
36585;SDS011;22591;48.314;11.562;2022-11-09T04:26:01;9.23;;;8.35;;
36585;SDS011;22591;48.314;11.562;2022-11-09T04:28:27;7.55;;;6.95;;
36585;SDS011;22591;48.314;11.562;2022-11-09T04:30:52;8.23;;;7.43;;
36585;SDS011;22591;48.314;11.562;2022-11-09T04:33:18;8.15;;;7.43;;
36585;SDS011;22591;48.314;11.562;2022-11-09T04:35:43;6.10;;;5.75;;
36585;SDS011;22591;48.314;11.562;2022-11-09T04:38:10;6.93;;;6.43;;
36585;SDS011;22591;48.314;11.562;2022-11-09T04:40:37;7.10;;;6.60;;
36585;SDS011;22591;48.314;11.562;2022-11-09T04:43:03;6.63;;;5.95;;
36585;SDS011;22591;48.314;11.562;2022-11-09T04:45:31;7.15;;;6.43;;
36585;SDS011;22591;48.314;11.562;2022-11-09T04:47:58;6.97;;;6.47;;
36585;SDS011;22591;48.314;11.562;2022-11-09T04:50:25;8.65;;;7.85;;
36585;SDS011;22591;48.314;11.562;2022-11-09T04:52:51;8.52;;;7.68;;
36585;SDS011;22591;48.314;11.562;2022-11-09T04:55:18;8.00;;;7.35;;
36585;SDS011;22591;48.314;11.562;2022-11-09T04:57:44;9.43;;;8.60;;
36585;SDS011;22591;48.314;11.562;2022-11-09T05:00:09;9.07;;;8.20;;
36585;SDS011;22591;48.314;11.562;2022-11-09T05:02:35;8.57;;;7.78;;
36585;SDS011;22591;48.314;11.562;2022-11-09T05:05:00;8.70;;;7.95;;
36585;SDS011;22591;48.314;11.562;2022-11-09T05:07:26;6.75;;;6.25;;
36585;SDS011;22591;48.314;11.562;2022-11-09T05:09:52;7.63;;;6.93;;
36585;SDS011;22591;48.314;11.562;2022-11-09T05:12:17;6.82;;;6.35;;
36585;SDS011;22591;48.314;11.562;2022-11-09T05:14:43;6.68;;;6.18;;
36585;SDS011;22591;48.314;11.562;2022-11-09T05:17:08;6.18;;;5.72;;
36585;SDS011;22591;48.314;11.562;2022-11-09T05:19:34;6.68;;;5.55;;
36585;SDS011;22591;48.314;11.562;2022-11-09T05:22:00;5.45;;;5.00;;
36585;SDS011;22591;48.314;11.562;2022-11-09T05:24:45;5.30;;;4.90;;
36585;SDS011;22591;48.314;11.562;2022-11-09T05:27:11;5.05;;;4.65;;
36585;SDS011;22591;48.314;11.562;2022-11-09T05:29:36;4.72;;;4.40;;
36585;SDS011;22591;48.314;11.562;2022-11-09T05:32:02;5.65;;;5.10;;
36585;SDS011;22591;48.314;11.562;2022-11-09T05:34:28;5.32;;;4.68;;
36585;SDS011;22591;48.314;11.562;2022-11-09T05:36:53;4.20;;;3.90;;
36585;SDS011;22591;48.314;11.562;2022-11-09T05:39:19;4.47;;;4.18;;
36585;SDS011;22591;48.314;11.562;2022-11-09T05:41:44;3.97;;;3.67;;
36585;SDS011;22591;48.314;11.562;2022-11-09T05:44:10;4.07;;;3.78;;
36585;SDS011;22591;48.314;11.562;2022-11-09T05:46:35;6.78;;;4.88;;
36585;SDS011;22591;48.314;11.562;2022-11-09T05:49:01;4.25;;;3.95;;
36585;SDS011;22591;48.314;11.562;2022-11-09T05:51:27;4.30;;;3.90;;
36585;SDS011;22591;48.314;11.562;2022-11-09T05:53:53;3.60;;;3.40;;
36585;SDS011;22591;48.314;11.562;2022-11-09T05:56:18;4.22;;;3.80;;
36585;SDS011;22591;48.314;11.562;2022-11-09T05:58:44;3.78;;;3.47;;
36585;SDS011;22591;48.314;11.562;2022-11-09T06:01:10;3.17;;;3.00;;
36585;SDS011;22591;48.314;11.562;2022-11-09T06:03:38;3.95;;;3.75;;
36585;SDS011;22591;48.314;11.562;2022-11-09T06:06:06;4.28;;;3.90;;
36585;SDS011;22591;48.314;11.562;2022-11-09T06:08:32;3.97;;;3.78;;
36585;SDS011;22591;48.314;11.562;2022-11-09T06:10:59;4.60;;;4.28;;
36585;SDS011;22591;48.314;11.562;2022-11-09T06:13:27;5.10;;;4.80;;
36585;SDS011;22591;48.314;11.562;2022-11-09T06:15:53;5.95;;;5.55;;
36585;SDS011;22591;48.314;11.562;2022-11-09T06:18:20;7.10;;;5.75;;
36585;SDS011;22591;48.314;11.562;2022-11-09T06:20:46;6.47;;;5.90;;
36585;SDS011;22591;48.314;11.562;2022-11-09T06:23:16;8.48;;;6.35;;
36585;SDS011;22591;48.314;11.562;2022-11-09T06:25:41;6.47;;;5.88;;
36585;SDS011;22591;48.314;11.562;2022-11-09T06:28:07;6.82;;;6.32;;
36585;SDS011;22591;48.314;11.562;2022-11-09T06:30:32;8.70;;;7.90;;
36585;SDS011;22591;48.314;11.562;2022-11-09T06:32:58;12.75;;;8.63;;
36585;SDS011;22591;48.314;11.562;2022-11-09T06:35:24;11.70;;;7.38;;
36585;SDS011;22591;48.314;11.562;2022-11-09T06:37:56;6.60;;;5.70;;
36585;SDS011;22591;48.314;11.562;2022-11-09T06:40:23;8.63;;;5.40;;
36585;SDS011;22591;48.314;11.562;2022-11-09T06:42:49;7.32;;;6.57;;
36585;SDS011;22591;48.314;11.562;2022-11-09T06:45:14;8.70;;;7.60;;
36585;SDS011;22591;48.314;11.562;2022-11-09T06:47:40;8.30;;;7.45;;
36585;SDS011;22591;48.314;11.562;2022-11-09T06:50:06;8.07;;;7.38;;
36585;SDS011;22591;48.314;11.562;2022-11-09T06:52:31;7.60;;;6.97;;
36585;SDS011;22591;48.314;11.562;2022-11-09T06:54:58;6.80;;;6.15;;
36585;SDS011;22591;48.314;11.562;2022-11-09T06:57:24;6.38;;;5.78;;
36585;SDS011;22591;48.314;11.562;2022-11-09T06:59:49;6.65;;;6.15;;
36585;SDS011;22591;48.314;11.562;2022-11-09T07:02:15;7.20;;;6.45;;
36585;SDS011;22591;48.314;11.562;2022-11-09T07:04:42;5.97;;;5.45;;
36585;SDS011;22591;48.314;11.562;2022-11-09T07:07:07;6.40;;;5.78;;
36585;SDS011;22591;48.314;11.562;2022-11-09T07:09:33;6.18;;;5.60;;
36585;SDS011;22591;48.314;11.562;2022-11-09T07:11:58;12.10;;;7.00;;
36585;SDS011;22591;48.314;11.562;2022-11-09T07:14:24;20.70;;;14.82;;
36585;SDS011;22591;48.314;11.562;2022-11-09T07:16:49;25.33;;;17.23;;
36585;SDS011;22591;48.314;11.562;2022-11-09T07:19:15;15.90;;;13.77;;
36585;SDS011;22591;48.314;11.562;2022-11-09T07:21:40;12.93;;;10.68;;
36585;SDS011;22591;48.314;11.562;2022-11-09T07:24:06;11.15;;;10.02;;
36585;SDS011;22591;48.314;11.562;2022-11-09T07:26:31;10.70;;;8.23;;
36585;SDS011;22591;48.314;11.562;2022-11-09T07:28:57;8.73;;;7.90;;
36585;SDS011;22591;48.314;11.562;2022-11-09T07:31:23;7.47;;;6.78;;
36585;SDS011;22591;48.314;11.562;2022-11-09T07:33:53;6.07;;;5.57;;
36585;SDS011;22591;48.314;11.562;2022-11-09T07:36:19;6.20;;;5.25;;
36585;SDS011;22591;48.314;11.562;2022-11-09T07:38:45;5.07;;;4.78;;
36585;SDS011;22591;48.314;11.562;2022-11-09T07:41:10;4.60;;;4.20;;
36585;SDS011;22591;48.314;11.562;2022-11-09T07:43:36;6.20;;;4.93;;
36585;SDS011;22591;48.314;11.562;2022-11-09T07:46:02;5.55;;;4.80;;
36585;SDS011;22591;48.314;11.562;2022-11-09T07:48:28;5.35;;;4.93;;
36585;SDS011;22591;48.314;11.562;2022-11-09T07:50:54;5.35;;;4.85;;
36585;SDS011;22591;48.314;11.562;2022-11-09T07:53:22;5.45;;;4.95;;
36585;SDS011;22591;48.314;11.562;2022-11-09T07:55:55;5.00;;;4.50;;
36585;SDS011;22591;48.314;11.562;2022-11-09T07:58:21;5.88;;;5.38;;
36585;SDS011;22591;48.314;11.562;2022-11-09T08:00:47;5.82;;;5.32;;
36585;SDS011;22591;48.314;11.562;2022-11-09T08:03:12;7.28;;;5.53;;
36585;SDS011;22591;48.314;11.562;2022-11-09T08:05:38;5.05;;;4.65;;
36585;SDS011;22591;48.314;11.562;2022-11-09T08:08:05;5.18;;;4.78;;
36585;SDS011;22591;48.314;11.562;2022-11-09T08:10:34;5.47;;;4.97;;
36585;SDS011;22591;48.314;11.562;2022-11-09T08:13:02;4.90;;;4.50;;
36585;SDS011;22591;48.314;11.562;2022-11-09T08:15:32;10.35;;;3.65;;
36585;SDS011;22591;48.314;11.562;2022-11-09T08:17:59;5.78;;;4.28;;
36585;SDS011;22591;48.314;11.562;2022-11-09T08:20:26;6.05;;;4.28;;
36585;SDS011;22591;48.314;11.562;2022-11-09T08:22:53;4.65;;;4.15;;
36585;SDS011;22591;48.314;11.562;2022-11-09T08:25:18;5.05;;;4.60;;
36585;SDS011;22591;48.314;11.562;2022-11-09T08:27:44;5.18;;;4.80;;
36585;SDS011;22591;48.314;11.562;2022-11-09T08:30:11;4.72;;;4.07;;
36585;SDS011;22591;48.314;11.562;2022-11-09T08:32:39;4.65;;;4.28;;
36585;SDS011;22591;48.314;11.562;2022-11-09T08:35:05;5.40;;;4.47;;
36585;SDS011;22591;48.314;11.562;2022-11-09T08:37:34;4.60;;;4.20;;
36585;SDS011;22591;48.314;11.562;2022-11-09T08:40:03;5.45;;;5.05;;
36585;SDS011;22591;48.314;11.562;2022-11-09T08:42:29;5.03;;;4.63;;
36585;SDS011;22591;48.314;11.562;2022-11-09T08:44:55;5.13;;;4.13;;
36585;SDS011;22591;48.314;11.562;2022-11-09T08:47:20;4.75;;;4.28;;
36585;SDS011;22591;48.314;11.562;2022-11-09T08:49:46;4.65;;;4.35;;
36585;SDS011;22591;48.314;11.562;2022-11-09T08:52:12;4.90;;;4.50;;
36585;SDS011;22591;48.314;11.562;2022-11-09T08:54:38;4.95;;;4.65;;
36585;SDS011;22591;48.314;11.562;2022-11-09T08:57:04;5.85;;;5.35;;
36585;SDS011;22591;48.314;11.562;2022-11-09T08:59:30;7.20;;;5.45;;
36585;SDS011;22591;48.314;11.562;2022-11-09T09:01:55;5.47;;;4.90;;
36585;SDS011;22591;48.314;11.562;2022-11-09T09:04:22;5.57;;;4.68;;
36585;SDS011;22591;48.314;11.562;2022-11-09T09:06:48;5.97;;;4.63;;
36585;SDS011;22591;48.314;11.562;2022-11-09T09:09:14;5.30;;;4.90;;
36585;SDS011;22591;48.314;11.562;2022-11-09T09:11:39;5.60;;;4.10;;
36585;SDS011;22591;48.314;11.562;2022-11-09T09:14:05;6.13;;;4.40;;
36585;SDS011;22591;48.314;11.562;2022-11-09T09:16:31;7.32;;;4.90;;
36585;SDS011;22591;48.314;11.562;2022-11-09T09:18:56;5.47;;;5.00;;
36585;SDS011;22591;48.314;11.562;2022-11-09T09:21:22;5.65;;;5.18;;
36585;SDS011;22591;48.314;11.562;2022-11-09T09:23:47;6.72;;;4.72;;
36585;SDS011;22591;48.314;11.562;2022-11-09T09:26:13;6.97;;;5.43;;
36585;SDS011;22591;48.314;11.562;2022-11-09T09:28:39;5.03;;;4.63;;
36585;SDS011;22591;48.314;11.562;2022-11-09T09:31:05;4.68;;;4.25;;
36585;SDS011;22591;48.314;11.562;2022-11-09T09:33:31;4.20;;;3.90;;
36585;SDS011;22591;48.314;11.562;2022-11-09T09:35:57;7.78;;;5.10;;
36585;SDS011;22591;48.314;11.562;2022-11-09T09:38:24;5.68;;;5.28;;
36585;SDS011;22591;48.314;11.562;2022-11-09T09:41:00;6.45;;;5.10;;
36585;SDS011;22591;48.314;11.562;2022-11-09T09:43:41;5.68;;;4.93;;
36585;SDS011;22591;48.314;11.562;2022-11-09T09:46:12;7.65;;;5.50;;
36585;SDS011;22591;48.314;11.562;2022-11-09T09:48:44;8.65;;;5.40;;
36585;SDS011;22591;48.314;11.562;2022-11-09T09:51:18;6.72;;;5.07;;
36585;SDS011;22591;48.314;11.562;2022-11-09T09:53:51;11.43;;;5.45;;
36585;SDS011;22591;48.314;11.562;2022-11-09T09:56:23;7.10;;;5.20;;
36585;SDS011;22591;48.314;11.562;2022-11-09T09:59:02;5.65;;;4.82;;
36585;SDS011;22591;48.314;11.562;2022-11-09T10:01:36;7.20;;;5.68;;
36585;SDS011;22591;48.314;11.562;2022-11-09T10:04:07;5.57;;;4.72;;
36585;SDS011;22591;48.314;11.562;2022-11-09T10:25:36;5.80;;;3.92;;
36585;SDS011;22591;48.314;11.562;2022-11-09T10:28:08;5.05;;;4.10;;
36585;SDS011;22591;48.314;11.562;2022-11-09T10:30:37;10.77;;;3.60;;
36585;SDS011;22591;48.314;11.562;2022-11-09T10:38:24;4.55;;;4.15;;
36585;SDS011;22591;48.314;11.562;2022-11-09T10:41:03;4.97;;;3.90;;
36585;SDS011;22591;48.314;11.562;2022-11-09T10:43:35;6.82;;;4.55;;
36585;SDS011;22591;48.314;11.562;2022-11-09T10:46:05;6.10;;;3.55;;
36585;SDS011;22591;48.314;11.562;2022-11-09T10:48:36;4.10;;;3.70;;
36585;SDS011;22591;48.314;11.562;2022-11-09T10:51:03;7.93;;;4.20;;
36585;SDS011;22591;48.314;11.562;2022-11-09T10:53:29;4.00;;;3.67;;
36585;SDS011;22591;48.314;11.562;2022-11-09T10:58:35;4.22;;;3.55;;
36585;SDS011;22591;48.314;11.562;2022-11-09T11:04:09;3.60;;;3.35;;
36585;SDS011;22591;48.314;11.562;2022-11-09T11:06:43;5.97;;;3.72;;
36585;SDS011;22591;48.314;11.562;2022-11-09T11:11:35;4.90;;;4.20;;
36585;SDS011;22591;48.314;11.562;2022-11-09T11:16:45;4.32;;;3.92;;
36585;SDS011;22591;48.314;11.562;2022-11-09T11:19:29;4.60;;;3.90;;
36585;SDS011;22591;48.314;11.562;2022-11-09T11:27:43;4.57;;;3.53;;
36585;SDS011;22591;48.314;11.562;2022-11-09T11:30:15;6.80;;;3.50;;
36585;SDS011;22591;48.314;11.562;2022-11-09T11:32:44;3.97;;;3.55;;
36585;SDS011;22591;48.314;11.562;2022-11-09T11:35:14;4.65;;;3.60;;
36585;SDS011;22591;48.314;11.562;2022-11-09T11:40:37;3.85;;;3.55;;
36585;SDS011;22591;48.314;11.562;2022-11-09T11:43:32;4.38;;;3.63;;
36585;SDS011;22591;48.314;11.562;2022-11-09T11:46:05;4.72;;;3.15;;
36585;SDS011;22591;48.314;11.562;2022-11-09T11:54:55;4.32;;;3.30;;
36585;SDS011;22591;48.314;11.562;2022-11-09T12:00:10;5.43;;;3.70;;
36585;SDS011;22591;48.314;11.562;2022-11-09T12:02:51;5.07;;;3.80;;
36585;SDS011;22591;48.314;11.562;2022-11-09T12:06:07;4.10;;;3.75;;
36585;SDS011;22591;48.314;11.562;2022-11-09T12:08:58;6.57;;;4.32;;
36585;SDS011;22591;48.314;11.562;2022-11-09T12:15:16;7.32;;;4.38;;
36585;SDS011;22591;48.314;11.562;2022-11-09T12:17:57;9.68;;;4.72;;
36585;SDS011;22591;48.314;11.562;2022-11-09T12:37:28;3.95;;;3.60;;
36585;SDS011;22591;48.314;11.562;2022-11-09T12:40:22;9.73;;;4.72;;
36585;SDS011;22591;48.314;11.562;2022-11-09T12:42:50;7.38;;;4.13;;
36585;SDS011;22591;48.314;11.562;2022-11-09T12:45:31;8.77;;;4.32;;
36585;SDS011;22591;48.314;11.562;2022-11-09T12:48:21;7.18;;;4.05;;
36585;SDS011;22591;48.314;11.562;2022-11-09T12:50:46;5.90;;;3.70;;
36585;SDS011;22591;48.314;11.562;2022-11-09T12:53:12;13.48;;;4.22;;
36585;SDS011;22591;48.314;11.562;2022-11-09T12:55:41;5.15;;;4.47;;
36585;SDS011;22591;48.314;11.562;2022-11-09T12:58:32;4.88;;;4.30;;
36585;SDS011;22591;48.314;11.562;2022-11-09T13:01:00;4.60;;;3.63;;
36585;SDS011;22591;48.314;11.562;2022-11-09T13:03:32;4.13;;;3.72;;
36585;SDS011;22591;48.314;11.562;2022-11-09T13:06:17;7.60;;;4.88;;
36585;SDS011;22591;48.314;11.562;2022-11-09T13:08:58;3.55;;;3.25;;
36585;SDS011;22591;48.314;11.562;2022-11-09T13:11:46;3.75;;;3.35;;
36585;SDS011;22591;48.314;11.562;2022-11-09T13:16:49;3.63;;;3.38;;
36585;SDS011;22591;48.314;11.562;2022-11-09T13:22:00;3.90;;;3.20;;
36585;SDS011;22591;48.314;11.562;2022-11-09T13:26:55;7.95;;;4.97;;
36585;SDS011;22591;48.314;11.562;2022-11-09T13:29:29;9.37;;;4.77;;
36585;SDS011;22591;48.314;11.562;2022-11-09T13:34:37;8.13;;;4.32;;
36585;SDS011;22591;48.314;11.562;2022-11-09T13:43:02;8.88;;;3.70;;
36585;SDS011;22591;48.314;11.562;2022-11-09T13:45:34;5.18;;;4.28;;
36585;SDS011;22591;48.314;11.562;2022-11-09T13:48:51;4.10;;;3.60;;
36585;SDS011;22591;48.314;11.562;2022-11-09T13:51:19;9.60;;;3.97;;
36585;SDS011;22591;48.314;11.562;2022-11-09T13:53:47;3.00;;;2.70;;
36585;SDS011;22591;48.314;11.562;2022-11-09T14:01:56;3.13;;;2.78;;
36585;SDS011;22591;48.314;11.562;2022-11-09T14:04:24;2.83;;;2.60;;
36585;SDS011;22591;48.314;11.562;2022-11-09T14:07:02;3.70;;;2.67;;
36585;SDS011;22591;48.314;11.562;2022-11-09T14:23:29;6.23;;;3.53;;
36585;SDS011;22591;48.314;11.562;2022-11-09T14:25:56;5.80;;;3.85;;
36585;SDS011;22591;48.314;11.562;2022-11-09T14:28:30;3.70;;;3.28;;
36585;SDS011;22591;48.314;11.562;2022-11-09T14:30:59;5.15;;;3.45;;
36585;SDS011;22591;48.314;11.562;2022-11-09T14:33:27;8.52;;;3.97;;
36585;SDS011;22591;48.314;11.562;2022-11-09T14:35:59;7.63;;;4.55;;
36585;SDS011;22591;48.314;11.562;2022-11-09T14:38:34;3.90;;;3.47;;
36585;SDS011;22591;48.314;11.562;2022-11-09T14:41:16;4.85;;;3.17;;
36585;SDS011;22591;48.314;11.562;2022-11-09T14:43:48;3.20;;;2.40;;
36585;SDS011;22591;48.314;11.562;2022-11-09T14:46:15;4.10;;;2.60;;
36585;SDS011;22591;48.314;11.562;2022-11-09T14:48:53;3.42;;;2.58;;
36585;SDS011;22591;48.314;11.562;2022-11-09T14:51:21;2.88;;;2.67;;
36585;SDS011;22591;48.314;11.562;2022-11-09T14:53:52;6.53;;;3.47;;
36585;SDS011;22591;48.314;11.562;2022-11-09T14:56:19;7.60;;;5.13;;
36585;SDS011;22591;48.314;11.562;2022-11-09T14:58:46;8.63;;;4.47;;
36585;SDS011;22591;48.314;11.562;2022-11-09T15:03:43;5.63;;;4.10;;
36585;SDS011;22591;48.314;11.562;2022-11-09T15:06:28;5.40;;;3.58;;
36585;SDS011;22591;48.314;11.562;2022-11-09T15:08:56;8.23;;;4.13;;
36585;SDS011;22591;48.314;11.562;2022-11-09T15:11:38;8.65;;;3.95;;
36585;SDS011;22591;48.314;11.562;2022-11-09T15:17:04;4.70;;;3.80;;
36585;SDS011;22591;48.314;11.562;2022-11-09T15:19:46;4.18;;;3.67;;
36585;SDS011;22591;48.314;11.562;2022-11-09T15:27:55;6.70;;;3.33;;
36585;SDS011;22591;48.314;11.562;2022-11-09T15:30:45;4.47;;;2.97;;
36585;SDS011;22591;48.314;11.562;2022-11-09T15:35:46;3.72;;;2.90;;
36585;SDS011;22591;48.314;11.562;2022-11-09T15:41:00;3.65;;;3.20;;
36585;SDS011;22591;48.314;11.562;2022-11-09T15:43:27;5.43;;;4.10;;
36585;SDS011;22591;48.314;11.562;2022-11-09T15:45:54;7.70;;;3.75;;
36585;SDS011;22591;48.314;11.562;2022-11-09T15:48:20;4.07;;;3.65;;
36585;SDS011;22591;48.314;11.562;2022-11-09T15:50:46;4.28;;;3.88;;
36585;SDS011;22591;48.314;11.562;2022-11-09T15:53:12;6.50;;;3.90;;
36585;SDS011;22591;48.314;11.562;2022-11-09T15:55:38;8.43;;;4.05;;
36585;SDS011;22591;48.314;11.562;2022-11-09T15:58:04;7.70;;;3.78;;
36585;SDS011;22591;48.314;11.562;2022-11-09T16:00:30;5.05;;;4.22;;
36585;SDS011;22591;48.314;11.562;2022-11-09T16:02:55;10.95;;;5.15;;
36585;SDS011;22591;48.314;11.562;2022-11-09T16:05:21;4.82;;;4.32;;
36585;SDS011;22591;48.314;11.562;2022-11-09T16:07:50;5.10;;;4.38;;
36585;SDS011;22591;48.314;11.562;2022-11-09T16:10:17;5.10;;;4.13;;
36585;SDS011;22591;48.314;11.562;2022-11-09T16:12:47;13.98;;;5.20;;
36585;SDS011;22591;48.314;11.562;2022-11-09T16:15:17;15.38;;;7.80;;
36585;SDS011;22591;48.314;11.562;2022-11-09T16:17:46;11.25;;;8.10;;
36585;SDS011;22591;48.314;11.562;2022-11-09T16:20:14;17.73;;;11.80;;
36585;SDS011;22591;48.314;11.562;2022-11-09T16:22:40;14.10;;;11.75;;
36585;SDS011;22591;48.314;11.562;2022-11-09T16:25:06;18.80;;;13.18;;
36585;SDS011;22591;48.314;11.562;2022-11-09T16:27:32;18.42;;;13.55;;
36585;SDS011;22591;48.314;11.562;2022-11-09T16:29:58;24.40;;;14.85;;
36585;SDS011;22591;48.314;11.562;2022-11-09T16:32:23;23.45;;;15.65;;
36585;SDS011;22591;48.314;11.562;2022-11-09T16:34:49;19.17;;;14.40;;
36585;SDS011;22591;48.314;11.562;2022-11-09T16:37:15;16.92;;;13.98;;
36585;SDS011;22591;48.314;11.562;2022-11-09T16:39:40;22.30;;;14.70;;
36585;SDS011;22591;48.314;11.562;2022-11-09T16:42:06;14.27;;;12.82;;
36585;SDS011;22591;48.314;11.562;2022-11-09T16:44:35;22.23;;;15.00;;